Airfield :
LOGIN :

Register | Disclaimer

   EN    FR    IT 

 










Legend :    VFR   Marginal VFR   IFR   Intensive IFR   Very Intensive IFR
Visi :
Ceiling :
>= 8 km
>= 3000ft
5 to 8 km
1000 to 3000 ft
1500m to 5 km
500 to 1000 ft
800 to 1500m
200 to 500 ft
< 800m
< 200 ft
Symbols :   Thunderstorms  Fog  Heavy snow  Heavy precipitations  Wind > 20 kt
SIGMETs :     Misc.  Thunderstorms  Icing  Turbulence  Mountain Waves  Volcanic Ashes







- Airport Elevation : 1084 ft
- IATA code : EPL
- Download approach charts


LFSG - Épinal-Mirecourt

CURRENT METAR :
  • 232000Z AUTO 08004KT 030V140 9999 ///TCU 11/05 Q1015

EXPIRED METARs :
  • 231930Z AUTO 04008KT 9999 ///CB 11/05 Q1013
  • 231900Z AUTO 04011KT CAVOK 12/05 Q1012
  • 231830Z AUTO 05014KT CAVOK 12/05 Q1011
  • 231800Z AUTO 05014KT CAVOK 13/05 Q1011
  • 231730Z AUTO 04012KT CAVOK 13/07 Q1011
  • 231700Z AUTO 04014KT CAVOK 14/06 Q1011

TAF N/A
No reported NOTAMs for that airfield.
1 SIGMET reported for the Reims FIR (LFEE) :
 
Embedded thunderstorms
LFEE SIGMET 2 VALID 231800/232000 LFPW
LFEE REIMS FIR/UIR EMBD TS FCST WI N4630 E00600 - N4630 E00445 - N4730 E00415 - N4800 E00500 - N4745 E00600 TOP FL320 MOV N 15KT NC=



MET'MAP, your aeronautical weather chart ! - Copyright ORBIFLY December 2007 - Disclaimer

ORBIFLY MET'MAP TEAM :

Programming & Development : Alexandra Zaïnal
Concept & Development : Baudouin d'Aumeries
Co-Development & Prog : Marc-Olivier Méhu
Technical & hardware support : Manuel Goepfert

Contact : metmap@orbifly.com




SOURCES & CREDITS :

   NOAA